Time;durP1;ratioP1;P1;durP2;ratioP2;P2;SDS_P1;SDS_P2;PMS_P1;PMS_P2;Temp;Humidity;BMP_temperature;BMP_pressure;BME280_temperature;BME280_humidity;BME280_pressure;Samples;Min_cycle;Max_cycle;Signal;HPM_P1;HPM_P2
2023/07/01 00:00:28;;;;;;;0.80;0.80;;;;;;;15.70;nan;100728.06;4954901;29;20190;-78
2023/07/01 00:02:54;;;;;;;1.17;0.47;;;;;;;15.60;nan;100724.94;4948875;28;20190;-78
2023/07/01 00:05:20;;;;;;;0.83;0.83;;;;;;;15.67;nan;100730.72;4960055;28;20241;-78
2023/07/01 00:07:46;;;;;;;0.30;0.30;;;;;;;15.65;nan;100722.78;4959663;28;20460;-77
2023/07/01 00:10:11;;;;;;;0.90;0.90;;;;;;;15.66;nan;100720.84;4958462;29;20190;-78
2023/07/01 00:12:37;;;;;;;0.60;0.60;;;;;;;15.59;nan;100721.38;4959742;28;20189;-77
2023/07/01 00:15:03;;;;;;;0.50;0.50;;;;;;;15.45;nan;100705.09;4959348;28;20270;-77
2023/07/01 00:17:28;;;;;;;1.27;1.23;;;;;;;15.34;nan;100708.63;4959828;28;20547;-78
2023/07/01 00:19:54;;;;;;;0.97;0.87;;;;;;;15.45;nan;100718.06;4959155;29;20197;-76
2023/07/01 00:22:19;;;;;;;0.60;0.40;;;;;;;15.42;nan;100711.28;4959552;28;20186;-78
2023/07/01 00:24:44;;;;;;;0.40;0.40;;;;;;;15.35;nan;100696.47;4959385;28;20186;-77
2023/07/01 00:27:10;;;;;;;1.87;0.60;;;;;;;15.50;nan;100706.06;4959463;28;20206;-77
2023/07/01 00:29:35;;;;;;;1.13;1.03;;;;;;;15.50;nan;100706.84;4958068;28;20225;-78
2023/07/01 00:32:00;;;;;;;0.47;0.47;;;;;;;15.64;nan;100717.63;4957422;29;20189;-77
2023/07/01 00:34:26;;;;;;;5.07;0.80;;;;;;;15.61;nan;100694.28;4958465;29;20175;-78
2023/07/01 00:36:51;;;;;;;1.47;0.83;;;;;;;15.65;nan;100695.25;4959200;28;20559;-77
2023/07/01 00:39:16;;;;;;;23.87;1.13;;;;;;;15.53;nan;100686.09;4959374;28;20675;-77
2023/07/01 00:41:42;;;;;;;0.97;0.83;;;;;;;15.51;nan;100675.41;4959478;29;20683;-77
2023/07/01 00:44:07;;;;;;;1.27;1.17;;;;;;;15.56;nan;100677.16;4959116;29;20197;-77
2023/07/01 00:46:33;;;;;;;0.57;0.57;;;;;;;15.52;nan;100671.53;4957855;28;20222;-78
2023/07/01 00:49:00;;;;;;;1.43;1.30;;;;;;;15.53;nan;100680.59;4958790;28;20194;-78
2023/07/01 00:51:27;;;;;;;1.73;0.50;;;;;;;15.62;nan;100689.59;4958613;28;20246;-77
2023/07/01 00:53:54;;;;;;;1.17;1.00;;;;;;;15.61;nan;100675.00;4958675;28;20615;-78
2023/07/01 00:56:20;;;;;;;0.70;0.70;;;;;;;15.60;nan;100662.38;4955910;28;20217;-77
2023/07/01 00:58:45;;;;;;;0.67;0.67;;;;;;;15.70;nan;100669.41;4952022;29;20289;-77
2023/07/01 01:01:17;;;;;;;0.40;0.40;;;;;;;15.77;nan;100672.44;4958719;29;20225;-78
2023/07/01 01:03:49;;;;;;;1.43;0.80;;;;;;;15.83;nan;100665.56;4957369;29;20259;-78
2023/07/01 01:06:33;;;;;;;0.40;0.40;;;;;;;15.85;nan;100657.75;4957026;28;20209;-77
2023/07/01 01:09:03;;;;;;;0.97;0.43;;;;;;;15.88;nan;100662.56;4958483;28;20189;-78
2023/07/01 01:11:32;;;;;;;3.37;1.10;;;;;;;15.91;nan;100653.63;4956955;29;20217;-78
2023/07/01 01:14:02;;;;;;;0.83;0.83;;;;;;;15.93;nan;100643.06;4958489;28;20234;-77
2023/07/01 01:16:28;;;;;;;0.70;0.70;;;;;;;15.99;nan;100658.22;4956779;28;20213;-78
2023/07/01 01:18:57;;;;;;;0.50;0.50;;;;;;;16.15;nan;100663.06;4961004;28;20190;-77
2023/07/01 01:21:24;;;;;;;0.00;0.00;;;;;;;15.87;nan;100633.41;4960958;28;20676;-78
2023/07/01 01:23:55;;;;;;;0.30;0.30;;;;;;;16.13;nan;100648.81;4951842;29;20281;-78
2023/07/01 01:26:26;;;;;;;1.03;0.30;;;;;;;16.16;nan;100635.16;4958256;28;20245;-77
2023/07/01 01:28:52;;;;;;;0.10;0.10;;;;;;;16.14;nan;100629.19;4958446;28;20182;-77
2023/07/01 01:31:19;;;;;;;0.40;0.40;;;;;;;16.23;nan;100623.56;4958598;28;20748;-78
2023/07/01 01:33:45;;;;;;;0.00;0.00;;;;;;;16.26;nan;100623.69;4960646;28;20265;-78
2023/07/01 01:36:21;;;;;;;0.00;0.00;;;;;;;16.36;nan;100622.41;4959104;28;20203;-79
2023/07/01 01:38:47;;;;;;;0.00;0.00;;;;;;;16.27;nan;100630.00;4947449;29;20186;-78
2023/07/01 01:41:22;;;;;;;0.00;0.00;;;;;;;16.22;nan;100613.69;4958087;28;20214;-78
2023/07/01 01:44:01;;;;;;;0.00;0.00;;;;;;;16.36;nan;100614.94;4954513;29;20213;-78
2023/07/01 01:46:27;;;;;;;0.00;0.00;;;;;;;16.32;nan;100604.94;4959786;28;20296;-78
2023/07/01 01:48:56;;;;;;;0.00;0.00;;;;;;;16.25;nan;100604.72;4974362;28;20198;-79
2023/07/01 01:51:23;;;;;;;0.00;0.00;;;;;;;16.44;nan;100621.47;4959603;28;20269;-78
2023/07/01 01:53:54;;;;;;;0.00;0.00;;;;;;;16.43;nan;100603.31;4959514;28;20190;-78
2023/07/01 01:56:20;;;;;;;0.00;0.00;;;;;;;16.42;nan;100617.47;4957866;28;20203;-78
2023/07/01 01:58:47;;;;;;;0.00;0.00;;;;;;;16.38;nan;100592.53;4952459;28;20186;-79
2023/07/01 02:01:13;;;;;;;0.00;0.00;;;;;;;16.30;nan;100582.44;4955866;29;20189;-78
2023/07/01 02:03:38;;;;;;;0.37;0.37;;;;;;;16.22;nan;100577.84;4958454;28;20190;-78
2023/07/01 02:06:03;;;;;;;0.23;0.23;;;;;;;16.27;nan;100570.13;4958510;28;20206;-78
2023/07/01 02:08:29;;;;;;;0.00;0.00;;;;;;;16.31;nan;100581.28;4957079;29;20191;-79
2023/07/01 02:10:54;;;;;;;0.00;0.00;;;;;;;16.37;nan;100568.88;4957252;29;20190;-78
2023/07/01 02:13:19;;;;;;;0.00;0.00;;;;;;;16.42;nan;100576.09;4958154;29;20702;-78
2023/07/01 02:15:45;;;;;;;0.00;0.00;;;;;;;16.35;nan;100543.59;4957954;28;20559;-78
2023/07/01 02:18:10;;;;;;;0.13;0.13;;;;;;;16.50;nan;100559.44;4956568;29;20186;-78
2023/07/01 02:20:35;;;;;;;0.00;0.00;;;;;;;16.48;nan;100550.66;4956436;29;20260;-77
2023/07/01 02:23:01;;;;;;;0.50;0.30;;;;;;;16.58;nan;100552.94;4956112;29;20186;-77
2023/07/01 02:25:26;;;;;;;0.00;0.00;;;;;;;16.70;nan;100543.06;4956632;28;20499;-78
2023/07/01 02:27:51;;;;;;;0.00;0.00;;;;;;;16.68;nan;100531.59;4957226;28;20277;-77
2023/07/01 02:30:17;;;;;;;0.43;0.40;;;;;;;16.70;nan;100529.28;4954541;28;20238;-77
2023/07/01 02:32:42;;;;;;;0.30;0.30;;;;;;;16.72;nan;100535.25;4951921;29;20185;-77
2023/07/01 02:35:08;;;;;;;0.20;0.20;;;;;;;16.72;nan;100535.25;4957486;28;20594;-78
2023/07/01 02:37:33;;;;;;;1.67;1.00;;;;;;;16.66;nan;100523.63;4957250;29;20178;-77
2023/07/01 02:39:58;;;;;;;0.93;0.93;;;;;;;16.60;nan;100516.75;4948086;29;20183;-78
2023/07/01 02:42:24;;;;;;;1.33;1.23;;;;;;;16.61;nan;100515.59;4950705;29;20657;-78
2023/07/01 02:44:49;;;;;;;0.80;0.80;;;;;;;16.58;nan;100519.03;4957927;28;20186;-78
2023/07/01 02:47:15;;;;;;;1.30;1.23;;;;;;;16.56;nan;100513.88;4958659;29;20688;-78
2023/07/01 02:49:40;;;;;;;1.53;1.43;;;;;;;16.55;nan;100509.53;4959015;28;20283;-78
2023/07/01 02:52:11;;;;;;;1.00;0.70;;;;;;;16.56;nan;100504.81;4958971;28;20186;-79
2023/07/01 02:54:39;;;;;;;0.03;0.03;;;;;;;16.58;nan;100508.81;4958907;28;20182;-78
2023/07/01 02:57:09;;;;;;;1.07;0.97;;;;;;;16.41;nan;100489.00;4957612;28;20203;-79
2023/07/01 02:59:35;;;;;;;1.20;1.10;;;;;;;16.50;nan;100492.44;4958683;28;20644;-77
2023/07/01 03:02:01;;;;;;;0.80;0.80;;;;;;;16.40;nan;100484.63;4958586;28;20178;-78
2023/07/01 03:04:26;;;;;;;0.60;0.60;;;;;;;16.33;nan;100485.22;4957546;29;20182;-78
2023/07/01 03:06:52;;;;;;;1.50;1.37;;;;;;;16.28;nan;100475.25;4957285;28;20293;-78
2023/07/01 03:09:17;;;;;;;1.60;1.50;;;;;;;16.20;nan;100464.34;4958807;29;20277;-77
2023/07/01 03:11:43;;;;;;;1.53;1.43;;;;;;;16.28;nan;100472.47;4959297;28;20190;-78
2023/07/01 03:14:08;;;;;;;7.17;0.93;;;;;;;16.22;nan;100429.78;4958457;28;20183;-78
2023/07/01 03:16:34;;;;;;;0.27;0.27;;;;;;;16.29;nan;100487.06;4958750;28;20205;-78
2023/07/01 03:18:59;;;;;;;1.97;1.70;;;;;;;15.92;nan;100459.59;4950642;29;20186;-78
2023/07/01 03:21:25;;;;;;;1.43;1.30;;;;;;;16.14;nan;100472.06;4941637;29;20213;-78
2023/07/01 03:23:51;;;;;;;1.33;1.23;;;;;;;16.30;nan;100477.66;4949605;29;20186;-78
2023/07/01 03:26:16;;;;;;;0.37;0.37;;;;;;;16.32;nan;100470.63;4958870;28;20269;-77
2023/07/01 03:28:42;;;;;;;1.37;1.27;;;;;;;16.33;nan;100458.44;4957194;29;20193;-78
2023/07/01 03:31:08;;;;;;;0.73;0.73;;;;;;;16.09;nan;100439.25;4958564;28;20696;-78
2023/07/01 03:33:33;;;;;;;0.80;0.80;;;;;;;16.18;nan;100444.59;4973109;28;20466;-79
2023/07/01 03:35:59;;;;;;;2.50;1.37;;;;;;;16.14;nan;100427.16;4957855;28;20671;-78
2023/07/01 03:38:24;;;;;;;0.87;0.87;;;;;;;16.33;nan;100452.94;4942129;28;20190;-77
2023/07/01 03:40:50;;;;;;;4.90;1.10;;;;;;;16.33;nan;100446.63;4949048;29;20253;-78
2023/07/01 03:43:16;;;;;;;0.63;0.43;;;;;;;16.45;nan;100437.50;4961659;28;20539;-78
2023/07/01 03:45:41;;;;;;;0.57;0.57;;;;;;;16.47;nan;100375.31;4960436;28;20210;-78
2023/07/01 03:48:07;;;;;;;1.67;0.73;;;;;;;16.45;nan;100423.72;4961933;28;20666;-78
2023/07/01 03:50:32;;;;;;;0.37;0.30;;;;;;;16.50;nan;100440.81;4961432;29;20182;-77
2023/07/01 03:52:57;;;;;;;0.07;0.07;;;;;;;16.55;nan;100440.56;4976853;28;20194;-78
2023/07/01 03:55:23;;;;;;;0.23;0.23;;;;;;;16.59;nan;100437.91;4962830;28;20206;-79
2023/07/01 03:57:48;;;;;;;0.67;0.67;;;;;;;16.68;nan;100412.94;4964126;28;20726;-79
2023/07/01 04:00:18;;;;;;;0.10;0.10;;;;;;;16.71;nan;100423.28;4970183;29;20206;-77
2023/07/01 04:02:45;;;;;;;2.17;0.30;;;;;;;16.77;nan;100414.38;4970789;28;20210;-77
2023/07/01 04:05:11;;;;;;;1.47;0.77;;;;;;;16.59;nan;100402.03;4969482;28;20567;-78
2023/07/01 04:07:41;;;;;;;0.10;0.10;;;;;;;16.78;nan;100427.03;4967447;29;20194;-78
2023/07/01 04:10:07;;;;;;;0.03;0.03;;;;;;;16.82;nan;100305.72;4959031;29;20731;-77
2023/07/01 04:12:33;;;;;;;0.20;0.20;;;;;;;16.86;nan;100426.06;4960577;28;20186;-77
2023/07/01 04:14:59;;;;;;;0.83;0.83;;;;;;;16.87;nan;100415.81;4952602;28;20186;-78
2023/07/01 04:17:25;;;;;;;0.43;0.43;;;;;;;16.90;nan;100406.81;4959122;29;20527;-77
2023/07/01 04:19:50;;;;;;;0.00;0.00;;;;;;;16.95;nan;100401.06;4971682;23;20257;-77
2023/07/01 04:22:15;;;;;;;0.10;0.10;;;;;;;16.97;nan;100386.91;4955518;29;20245;-77
2023/07/01 04:24:41;;;;;;;1.97;1.07;;;;;;;16.97;nan;100393.22;4956920;28;20301;-77
2023/07/01 04:27:06;;;;;;;0.93;0.93;;;;;;;16.89;nan;100275.53;4956572;29;20715;-76
2023/07/01 04:29:31;;;;;;;0.10;0.10;;;;;;;16.97;nan;100365.63;4956478;29;20190;-77
2023/07/01 04:31:56;;;;;;;0.60;0.60;;;;;;;17.12;nan;100388.88;4955437;28;20186;-77
2023/07/01 04:34:22;;;;;;;0.40;0.40;;;;;;;17.08;nan;100388.78;4956357;28;20210;-77
2023/07/01 04:36:47;;;;;;;1.40;0.93;;;;;;;17.13;nan;100388.50;4956531;29;20182;-76
2023/07/01 04:39:12;;;;;;;0.00;0.00;;;;;;;17.25;nan;100388.41;4955040;29;20194;-77
2023/07/01 04:41:38;;;;;;;0.10;0.10;;;;;;;17.16;nan;100382.25;4955126;29;20286;-77
2023/07/01 04:44:05;;;;;;;0.00;0.00;;;;;;;17.10;nan;100367.13;4955120;28;20244;-77
2023/07/01 04:46:31;;;;;;;0.70;0.70;;;;;;;17.22;nan;100369.00;4956458;29;20205;-77
2023/07/01 04:48:57;;;;;;;0.03;0.03;;;;;;;17.24;nan;100372.19;4955924;28;20209;-77
2023/07/01 04:51:22;;;;;;;0.00;0.00;;;;;;;17.30;nan;100362.47;4954984;28;20226;-77
2023/07/01 04:53:48;;;;;;;0.00;0.00;;;;;;;17.25;nan;100369.09;4954720;28;20214;-77
2023/07/01 04:56:13;;;;;;;0.00;0.00;;;;;;;17.32;nan;100367.63;4956029;29;20263;-77
2023/07/01 04:58:38;;;;;;;0.00;0.00;;;;;;;17.46;nan;100359.69;4954873;29;20199;-77
2023/07/01 05:01:04;;;;;;;0.00;0.00;;;;;;;17.36;nan;100349.19;4955758;29;20190;-76
2023/07/01 05:03:29;;;;;;;0.00;0.00;;;;;;;17.30;nan;100351.44;4955895;28;20557;-77
2023/07/01 05:05:54;;;;;;;0.00;0.00;;;;;;;17.33;nan;100355.44;4954681;29;20222;-77
2023/07/01 05:08:20;;;;;;;0.53;0.40;;;;;;;17.42;nan;100353.28;4956218;29;20265;-77
2023/07/01 05:10:45;;;;;;;0.10;0.10;;;;;;;17.49;nan;100348.72;4954666;29;20186;-77
2023/07/01 05:13:11;;;;;;;0.00;0.00;;;;;;;17.39;nan;100354.81;4955432;28;20293;-80
2023/07/01 05:15:37;;;;;;;0.00;0.00;;;;;;;17.47;nan;100350.22;4956521;29;20648;-78
2023/07/01 05:18:03;;;;;;;0.00;0.00;;;;;;;17.39;nan;100345.72;4956492;28;20701;-86
2023/07/01 05:20:28;;;;;;;0.00;0.00;;;;;;;17.52;nan;100339.72;4958733;28;20293;-81
2023/07/01 05:22:54;;;;;;;0.10;0.10;;;;;;;17.62;nan;100338.34;4952151;28;20233;-82
2023/07/01 05:25:19;;;;;;;0.70;0.60;;;;;;;17.57;nan;100330.34;4954832;28;20202;-77
2023/07/01 05:27:44;;;;;;;0.20;0.20;;;;;;;17.64;nan;100316.66;4954699;29;20293;-77
2023/07/01 05:30:10;;;;;;;0.10;0.10;;;;;;;17.62;nan;100326.50;4955860;28;20216;-77
2023/07/01 05:32:35;;;;;;;2.00;1.07;;;;;;;17.50;nan;100317.19;4955460;28;20186;-77
2023/07/01 05:35:02;;;;;;;1.77;1.67;;;;;;;17.71;nan;100336.22;4954113;29;20578;-77
2023/07/01 05:37:27;;;;;;;0.20;0.20;;;;;;;17.75;nan;100331.56;4955739;28;20185;-77
2023/07/01 05:39:52;;;;;;;0.93;0.63;;;;;;;17.69;nan;100323.91;4955353;29;20194;-77
2023/07/01 05:42:18;;;;;;;1.27;0.67;;;;;;;17.53;nan;100310.94;4954347;28;20194;-76
2023/07/01 05:44:43;;;;;;;0.80;0.80;;;;;;;17.55;nan;100247.03;4970082;28;20214;-77
2023/07/01 05:47:08;;;;;;;0.40;0.40;;;;;;;17.93;nan;100306.25;4953964;28;20217;-76
2023/07/01 05:49:34;;;;;;;1.60;1.13;;;;;;;17.87;nan;100297.44;4954992;29;20225;-77
2023/07/01 05:51:59;;;;;;;0.53;0.53;;;;;;;18.06;nan;100314.00;4953925;29;20671;-77
2023/07/01 05:54:24;;;;;;;2.20;0.80;;;;;;;18.11;nan;100326.78;4939417;29;20225;-76
2023/07/01 05:56:49;;;;;;;0.60;0.60;;;;;;;18.17;nan;100325.28;4955154;28;20186;-77
2023/07/01 05:59:15;;;;;;;1.47;1.33;;;;;;;18.06;nan;100316.78;4953580;29;20194;-77
2023/07/01 06:01:40;;;;;;;0.20;0.20;;;;;;;18.06;nan;100321.50;4954810;28;20182;-77
2023/07/01 06:04:05;;;;;;;1.37;1.30;;;;;;;17.83;nan;100308.44;4954911;28;20214;-77
2023/07/01 06:06:31;;;;;;;1.40;0.97;;;;;;;17.91;nan;100323.19;4954126;29;20224;-78
2023/07/01 06:08:56;;;;;;;6.03;0.87;;;;;;;17.92;nan;100315.69;4955405;28;20191;-78
2023/07/01 06:11:22;;;;;;;1.00;0.60;;;;;;;17.88;nan;100317.59;4955266;28;20273;-78
2023/07/01 06:13:47;;;;;;;0.70;0.70;;;;;;;17.83;nan;100311.19;4955731;28;20214;-77
2023/07/01 06:16:14;;;;;;;0.17;0.17;;;;;;;17.88;nan;100301.00;4956121;28;20187;-78
2023/07/01 06:18:42;;;;;;;0.00;0.00;;;;;;;17.92;nan;100307.41;4955975;28;20545;-78
2023/07/01 06:21:08;;;;;;;0.50;0.50;;;;;;;17.75;nan;100289.31;4953478;29;20205;-78
2023/07/01 06:23:35;;;;;;;0.00;0.00;;;;;;;17.92;nan;100312.94;4954513;28;20689;-78
2023/07/01 06:26:01;;;;;;;0.53;0.30;;;;;;;18.03;nan;100306.47;4951950;28;20583;-78
2023/07/01 06:28:26;;;;;;;0.40;0.40;;;;;;;18.08;nan;100291.53;4948388;29;20182;-78
2023/07/01 06:30:51;;;;;;;0.83;0.60;;;;;;;18.02;nan;100290.25;4954945;29;20210;-78
2023/07/01 06:33:17;;;;;;;0.83;0.83;;;;;;;18.06;nan;100294.66;4953756;28;20623;-78
2023/07/01 06:35:43;;;;;;;0.67;0.67;;;;;;;18.06;nan;100272.53;4956083;28;20679;-78
2023/07/01 06:38:08;;;;;;;0.30;0.30;;;;;;;18.19;nan;100273.19;4954931;29;20226;-79
2023/07/01 06:40:34;;;;;;;0.13;0.13;;;;;;;18.20;nan;100268.44;4956154;28;20657;-78
2023/07/01 06:42:59;;;;;;;1.03;0.93;;;;;;;18.25;nan;100249.59;4954769;28;20218;-79
2023/07/01 06:45:25;;;;;;;1.00;1.00;;;;;;;18.39;nan;100238.00;4970469;28;20190;-78
2023/07/01 06:47:50;;;;;;;0.00;0.00;;;;;;;18.47;nan;100264.59;4956078;28;20243;-78
2023/07/01 06:50:16;;;;;;;2.53;1.10;;;;;;;18.56;nan;100267.13;4955717;28;20186;-78
2023/07/01 06:52:41;;;;;;;0.73;0.73;;;;;;;18.58;nan;100268.34;4956244;28;20197;-78
2023/07/01 06:55:07;;;;;;;0.00;0.00;;;;;;;18.84;nan;100277.91;4956146;29;20190;-78
2023/07/01 06:57:33;;;;;;;0.10;0.10;;;;;;;18.87;nan;100266.88;4956102;28;20261;-78
2023/07/01 06:59:58;;;;;;;0.00;0.00;;;;;;;18.96;nan;100272.16;4955460;28;20269;-78
2023/07/01 07:02:24;;;;;;;0.87;0.63;;;;;;;18.94;nan;100260.63;4954851;29;20244;-79
2023/07/01 07:04:50;;;;;;;0.10;0.10;;;;;;;19.05;nan;100258.03;4955675;28;20209;-78
2023/07/01 07:07:15;;;;;;;0.00;0.00;;;;;;;19.29;nan;100243.75;4955862;29;20210;-79
2023/07/01 07:09:40;;;;;;;0.00;0.00;;;;;;;19.26;nan;100245.31;4955798;29;20254;-79
2023/07/01 07:12:06;;;;;;;0.00;0.00;;;;;;;19.08;nan;100226.81;4955719;28;20194;-79
2023/07/01 07:14:31;;;;;;;0.50;0.50;;;;;;;19.09;nan;100237.53;4954893;28;20749;-79
2023/07/01 07:16:57;;;;;;;0.20;0.20;;;;;;;19.09;nan;100236.72;4956005;28;20237;-78
2023/07/01 07:19:22;;;;;;;0.63;0.50;;;;;;;19.07;nan;100228.00;4955544;28;20194;-78
2023/07/01 07:21:47;;;;;;;0.10;0.10;;;;;;;18.96;nan;100222.31;4955756;28;20198;-79
2023/07/01 07:24:13;;;;;;;0.77;0.33;;;;;;;19.01;nan;100228.31;4956121;28;20210;-79
2023/07/01 07:26:38;;;;;;;3.70;2.23;;;;;;;18.88;nan;100218.63;4943280;28;20262;-79
2023/07/01 07:29:04;;;;;;;0.57;0.57;;;;;;;18.91;nan;100217.88;4952987;29;20630;-78
2023/07/01 07:31:29;;;;;;;0.70;0.70;;;;;;;18.86;nan;100209.91;4955972;28;20190;-79
2023/07/01 07:33:54;;;;;;;0.67;0.67;;;;;;;18.81;nan;100204.72;4954974;28;20282;-78
2023/07/01 07:36:20;;;;;;;0.03;0.00;;;;;;;18.91;nan;100212.34;4953967;29;20277;-78
2023/07/01 07:38:46;;;;;;;0.00;0.00;;;;;;;19.03;nan;100216.88;4955730;28;20675;-78
2023/07/01 07:41:11;;;;;;;0.10;0.10;;;;;;;19.00;nan;100214.84;4954961;29;20190;-79
2023/07/01 07:43:37;;;;;;;0.27;0.17;;;;;;;19.02;nan;100215.28;4955780;28;20206;-78
2023/07/01 07:46:02;;;;;;;0.30;0.30;;;;;;;19.04;nan;100196.31;4955634;29;20218;-78
2023/07/01 07:48:27;;;;;;;0.43;0.43;;;;;;;19.14;nan;100211.50;4955346;29;20186;-79
2023/07/01 07:50:52;;;;;;;0.63;0.60;;;;;;;18.95;nan;100137.63;4954036;29;20214;-79
2023/07/01 07:53:18;;;;;;;0.00;0.00;;;;;;;19.01;nan;100236.63;4970878;28;20722;-79
2023/07/01 07:55:44;;;;;;;6.23;2.00;;;;;;;19.13;nan;100243.13;4954699;28;20201;-78
2023/07/01 07:58:09;;;;;;;0.80;0.80;;;;;;;19.19;nan;100223.03;4956134;29;20672;-78
2023/07/01 08:00:35;;;;;;;0.20;0.20;;;;;;;19.31;nan;100220.03;4953936;29;20187;-79
2023/07/01 08:03:00;;;;;;;1.83;0.40;;;;;;;19.44;nan;100211.50;4954737;28;20206;-78
2023/07/01 08:05:27;;;;;;;0.17;0.17;;;;;;;19.49;nan;100211.94;4954436;29;20187;-79
2023/07/01 08:07:53;;;;;;;1.00;1.00;;;;;;;19.37;nan;100194.75;4955597;29;20601;-79
2023/07/01 08:10:18;;;;;;;0.77;0.47;;;;;;;19.32;nan;100193.13;4955564;28;20198;-79
2023/07/01 08:12:43;;;;;;;1.93;1.03;;;;;;;19.27;nan;100193.47;4955400;28;20209;-79
2023/07/01 08:15:09;;;;;;;0.87;0.83;;;;;;;19.20;nan;100174.78;4955815;29;20187;-79
2023/07/01 08:17:35;;;;;;;1.33;1.23;;;;;;;19.21;nan;100192.19;4955754;28;20304;-79
2023/07/01 08:20:00;;;;;;;0.30;0.30;;;;;;;19.41;nan;100206.72;4955237;29;20692;-79
2023/07/01 08:22:26;;;;;;;2.57;1.07;;;;;;;19.27;nan;100188.72;4954248;28;20194;-78
2023/07/01 08:24:51;;;;;;;0.97;0.93;;;;;;;19.20;nan;100183.09;4956168;28;20190;-78
2023/07/01 08:27:16;;;;;;;0.10;0.10;;;;;;;19.28;nan;100182.00;4955589;29;20249;-78
2023/07/01 08:29:42;;;;;;;0.60;0.50;;;;;;;19.27;nan;100191.50;4950320;29;20198;-78
2023/07/01 08:32:07;;;;;;;1.27;0.70;;;;;;;19.34;nan;100188.00;4948180;29;20197;-78
2023/07/01 08:34:35;;;;;;;0.50;0.50;;;;;;;19.24;nan;100181.19;4958186;28;20325;-78
2023/07/01 08:37:00;;;;;;;0.67;0.67;;;;;;;19.19;nan;100177.91;4957386;28;20637;-78
2023/07/01 08:39:26;;;;;;;1.33;0.90;;;;;;;19.08;nan;100163.91;4959270;28;20206;-78
2023/07/01 08:41:57;;;;;;;0.33;0.30;;;;;;;19.12;nan;100173.09;4974552;28;20186;-78
2023/07/01 08:44:25;;;;;;;6.10;1.47;;;;;;;19.10;nan;100144.97;4958950;28;20217;-78
2023/07/01 08:46:52;;;;;;;0.33;0.30;;;;;;;19.07;nan;100156.00;4958549;28;20240;-78
2023/07/01 08:49:23;;;;;;;4.20;1.40;;;;;;;18.73;nan;100136.56;4958560;28;20186;-78
2023/07/01 08:52:19;;;;;;;0.50;0.50;;;;;;;18.76;nan;100143.31;4958362;28;20186;-78
2023/07/01 08:54:45;;;;;;;1.13;1.13;;;;;;;18.64;nan;100145.13;4949678;28;20230;-78
2023/07/01 08:57:11;;;;;;;1.87;0.87;;;;;;;18.68;nan;100161.81;4958698;28;20190;-78
2023/07/01 08:59:37;;;;;;;0.70;0.70;;;;;;;18.80;nan;100161.56;4956588;29;20182;-78
2023/07/01 09:02:03;;;;;;;0.73;0.73;;;;;;;18.80;nan;100150.50;4958487;28;20249;-78
2023/07/01 09:04:29;;;;;;;2.37;1.00;;;;;;;18.62;nan;100143.88;4956960;28;20696;-78
2023/07/01 09:06:54;;;;;;;0.73;0.70;;;;;;;18.74;nan;100163.06;4950718;29;20289;-78
2023/07/01 09:09:19;;;;;;;2.40;0.93;;;;;;;18.92;nan;100175.19;4948737;29;20197;-78
2023/07/01 09:11:47;;;;;;;0.80;0.80;;;;;;;18.90;nan;100146.28;4957522;28;20233;-79
2023/07/01 09:14:13;;;;;;;1.03;0.93;;;;;;;18.96;nan;100170.50;4957255;28;20230;-78
2023/07/01 09:16:39;;;;;;;0.33;0.33;;;;;;;19.03;nan;100158.72;4956216;29;20221;-78
2023/07/01 09:19:06;;;;;;;0.00;0.00;;;;;;;19.24;nan;100177.56;4955789;29;20194;-78
2023/07/01 09:21:32;;;;;;;3.67;1.17;;;;;;;19.11;nan;100159.63;4957456;28;20202;-78
2023/07/01 09:23:59;;;;;;;10.47;1.83;;;;;;;19.33;nan;100170.59;4956403;28;20210;-78
2023/07/01 09:26:26;;;;;;;1.10;1.03;;;;;;;19.33;nan;100155.94;4940124;29;20217;-78
2023/07/01 09:28:53;;;;;;;1.30;0.97;;;;;;;19.51;nan;100151.38;4957376;28;20182;-78
2023/07/01 09:31:19;;;;;;;1.23;0.97;;;;;;;19.51;nan;100142.28;4956046;29;20197;-78
2023/07/01 09:34:03;;;;;;;4.63;0.77;;;;;;;19.61;nan;100170.16;4955683;28;20689;-78
2023/07/01 09:36:30;;;;;;;0.60;0.60;;;;;;;19.72;nan;100169.47;4954756;28;20727;-78
2023/07/01 09:38:56;;;;;;;0.60;0.60;;;;;;;19.77;nan;100160.81;4957039;28;20190;-79
2023/07/01 09:41:26;;;;;;;2.57;1.73;;;;;;;19.97;nan;100169.75;4957207;28;20709;-78
2023/07/01 09:43:56;;;;;;;0.80;0.80;;;;;;;19.90;nan;100156.59;4954766;28;20206;-78
2023/07/01 09:46:22;;;;;;;1.63;0.83;;;;;;;19.81;nan;100150.53;4944298;28;20206;-77
2023/07/01 09:48:56;;;;;;;1.00;0.93;;;;;;;19.89;nan;100153.03;4939998;29;20246;-78
2023/07/01 09:51:24;;;;;;;1.07;0.63;;;;;;;19.72;nan;100144.53;4951192;29;20364;-78
2023/07/01 09:53:49;;;;;;;0.87;0.87;;;;;;;19.57;nan;100155.47;4932988;29;20203;-78
2023/07/01 09:56:17;;;;;;;6.43;1.53;;;;;;;19.41;nan;100132.69;4943321;29;20191;-78
2023/07/01 09:58:44;;;;;;;0.90;0.90;;;;;;;19.29;nan;100266.72;4935176;29;20186;-78
2023/07/01 10:01:14;;;;;;;0.50;0.50;;;;;;;19.20;nan;100194.16;4932895;29;20710;-78
2023/07/01 10:03:41;;;;;;;0.40;0.40;;;;;;;19.11;nan;100149.34;4950048;28;20194;-78
2023/07/01 10:06:06;;;;;;;10.13;3.00;;;;;;;18.87;nan;100167.22;4954118;29;20689;-78
2023/07/01 10:08:33;;;;;;;4.20;1.43;;;;;;;18.82;nan;100159.25;4955864;28;20187;-78
2023/07/01 10:11:06;;;;;;;0.43;0.43;;;;;;;18.98;nan;100168.16;4954270;29;20228;-78
2023/07/01 10:13:38;;;;;;;1.53;1.17;;;;;;;19.02;nan;100174.53;4951861;28;20235;-78
2023/07/01 10:16:06;;;;;;;2.83;1.57;;;;;;;19.13;nan;100173.91;4960068;28;20186;-78
2023/07/01 10:18:33;;;;;;;0.77;0.77;;;;;;;19.02;nan;100152.38;4944148;28;20190;-77
2023/07/01 10:21:23;;;;;;;12.23;0.50;;;;;;;19.03;nan;100178.09;4965718;23;20858;-87
2023/07/01 10:23:49;;;;;;;1.60;0.40;;;;;;;18.72;nan;100143.28;4961035;28;20203;-85
2023/07/01 10:26:42;;;;;;;1.37;1.27;;;;;;;18.60;nan;100162.81;4962797;28;20219;-88
2023/07/01 10:29:33;;;;;;;0.90;0.90;;;;;;;18.42;nan;100143.19;4947351;29;20202;-87
2023/07/01 10:32:08;;;;;;;1.43;1.20;;;;;;;18.40;nan;100151.88;4939172;28;20290;-88
2023/07/01 10:34:52;;;;;;;3.67;1.23;;;;;;;18.18;nan;100135.28;4933373;29;20214;-89
2023/07/01 10:37:17;;;;;;;6.23;1.20;;;;;;;17.95;nan;100121.50;4943498;29;20191;-88
2023/07/01 10:39:43;;;;;;;0.87;0.87;;;;;;;17.92;nan;100138.78;4951807;29;20253;-88
2023/07/01 10:42:33;;;;;;;2.10;1.33;;;;;;;17.82;nan;100129.16;4951108;28;20297;-87
2023/07/01 10:45:11;;;;;;;1.27;1.17;;;;;;;17.84;nan;100055.75;4935942;29;20539;-88
2023/07/01 10:47:44;;;;;;;0.80;0.80;;;;;;;17.81;nan;100156.00;4929580;29;20211;-87
2023/07/01 10:50:11;;;;;;;1.30;1.20;;;;;;;17.83;nan;100152.88;4932528;29;20192;-87
2023/07/01 10:53:04;;;;;;;0.37;0.37;;;;;;;17.90;nan;100154.94;4947320;29;20194;-89
2023/07/01 10:55:43;;;;;;;1.40;1.20;;;;;;;17.92;nan;100145.13;4931397;29;20282;-86
2023/07/01 10:58:26;;;;;;;1.27;1.20;;;;;;;18.08;nan;100161.56;4957240;28;20183;-87
2023/07/01 11:00:55;;;;;;;1.37;1.27;;;;;;;18.21;nan;100168.53;4950742;28;20636;-87
2023/07/01 11:03:33;;;;;;;0.93;0.93;;;;;;;18.20;nan;100185.50;4935937;29;20190;-87
2023/07/01 11:06:00;;;;;;;2.93;0.57;;;;;;;18.18;nan;100171.22;4930889;29;20222;-87
2023/07/01 11:08:26;;;;;;;0.50;0.50;;;;;;;17.89;nan;100112.69;4945877;29;20237;-87
2023/07/01 11:10:51;;;;;;;0.30;0.30;;;;;;;17.82;nan;100141.00;4947326;28;20210;-87
2023/07/01 11:13:18;;;;;;;1.10;0.97;;;;;;;17.73;nan;100137.69;4950203;29;20179;-87
2023/07/01 11:16:09;;;;;;;1.27;0.70;;;;;;;17.60;nan;100143.72;4948661;28;20226;-87
2023/07/01 11:18:48;;;;;;;2.47;0.77;;;;;;;17.73;nan;100145.97;4935075;29;20210;-88
2023/07/01 11:21:18;;;;;;;2.60;1.20;;;;;;;17.80;nan;100140.59;4934846;29;20665;-87
2023/07/01 11:24:07;;;;;;;4.77;1.07;;;;;;;18.02;nan;100140.94;4940312;29;20249;-87
2023/07/01 11:26:34;;;;;;;0.20;0.20;;;;;;;18.18;nan;100130.56;4942633;28;20225;-87
2023/07/01 11:29:01;;;;;;;0.37;0.37;;;;;;;18.21;nan;100035.78;4942581;29;20186;-87
2023/07/01 11:31:33;;;;;;;0.27;0.27;;;;;;;18.54;nan;100147.72;4936278;29;20219;-87
2023/07/01 11:34:00;;;;;;;0.00;0.00;;;;;;;18.64;nan;100155.41;4942882;29;20206;-87
2023/07/01 11:36:37;;;;;;;0.10;0.10;;;;;;;18.93;nan;100160.16;4946552;29;20437;-87
2023/07/01 11:39:13;;;;;;;0.93;0.83;;;;;;;19.10;nan;100163.56;4953806;29;20682;-86
2023/07/01 11:41:41;;;;;;;0.00;0.00;;;;;;;19.35;nan;100175.75;4943324;29;20206;-87